KIRS/IRS METAR and TAF weather

Enter ICAO airport designator
Station Type Date Time Source
KIRS METAR 2019/08/22 15:37 UTC NOAA

KIRS 221537Z AUTO 06007KT 10SM CLR 22/15 A3002 RMK AO2 T02230148


Station Type Date Time Source
KIRS Decoded METAR 2019/08/22 15:37 UTC NOAA

Station name not available
Aug 22, 2019 - 11:37 AM EDT / 2019.08.22 1537 UTC
Wind: from the ENE (060 degrees) at 8 MPH (7 KT):0
Visibility: 10 mile(s):0
Sky conditions: clear
Temperature: 72.1 F (22.3 C)
Dew Point: 58.6 F (14.8 C)
Relative Humidity: 62%
Pressure (altimeter): 30.02 in. Hg (1016 hPa)
ob: KIRS 221537Z AUTO 06007KT 10SM CLR 22/15 A3002 RMK AO2 T02230148
cycle: 15

Station Type Date Time Source
KIRS TAF UTC NOAA

Error!

Example: see airport list